sensor_id;sensor_type;location;lat;lon;timestamp;temperature;humidity
13488;DHT22;6816;48.506;9.050;2023-06-14T00:01:41;15.40;56.00
13488;DHT22;6816;48.506;9.050;2023-06-14T00:04:41;15.30;56.20
13488;DHT22;6816;48.506;9.050;2023-06-14T00:07:43;15.20;56.40
13488;DHT22;6816;48.506;9.050;2023-06-14T00:10:44;15.10;56.70
13488;DHT22;6816;48.506;9.050;2023-06-14T00:13:45;15.00;56.80
13488;DHT22;6816;48.506;9.050;2023-06-14T00:16:46;15.00;57.10
13488;DHT22;6816;48.506;9.050;2023-06-14T00:19:46;15.00;57.30
13488;DHT22;6816;48.506;9.050;2023-06-14T00:22:47;14.90;57.50
13488;DHT22;6816;48.506;9.050;2023-06-14T00:25:48;15.00;57.80
13488;DHT22;6816;48.506;9.050;2023-06-14T00:28:49;14.80;57.80
13488;DHT22;6816;48.506;9.050;2023-06-14T00:31:49;14.80;58.00
13488;DHT22;6816;48.506;9.050;2023-06-14T00:34:50;14.70;58.20
13488;DHT22;6816;48.506;9.050;2023-06-14T00:37:51;14.70;58.30
13488;DHT22;6816;48.506;9.050;2023-06-14T00:40:51;14.60;58.50
13488;DHT22;6816;48.506;9.050;2023-06-14T00:43:52;14.60;58.70
13488;DHT22;6816;48.506;9.050;2023-06-14T00:46:53;14.60;58.80
13488;DHT22;6816;48.506;9.050;2023-06-14T00:49:54;14.50;58.90
13488;DHT22;6816;48.506;9.050;2023-06-14T00:52:56;14.50;59.10
13488;DHT22;6816;48.506;9.050;2023-06-14T00:55:58;14.40;59.30
13488;DHT22;6816;48.506;9.050;2023-06-14T00:58:58;14.40;59.40
13488;DHT22;6816;48.506;9.050;2023-06-14T01:01:59;14.50;60.30
13488;DHT22;6816;48.506;9.050;2023-06-14T01:05:00;14.40;59.70
13488;DHT22;6816;48.506;9.050;2023-06-14T01:11:07;14.20;59.90
13488;DHT22;6816;48.506;9.050;2023-06-14T01:14:13;14.20;60.50
13488;DHT22;6816;48.506;9.050;2023-06-14T01:17:14;14.10;60.40
13488;DHT22;6816;48.506;9.050;2023-06-14T01:20:18;14.10;60.40
13488;DHT22;6816;48.506;9.050;2023-06-14T01:23:22;14.00;60.50
13488;DHT22;6816;48.506;9.050;2023-06-14T01:26:23;13.90;60.70
13488;DHT22;6816;48.506;9.050;2023-06-14T01:29:25;13.90;60.90
13488;DHT22;6816;48.506;9.050;2023-06-14T01:32:28;13.90;61.20
13488;DHT22;6816;48.506;9.050;2023-06-14T01:35:30;13.80;60.90
13488;DHT22;6816;48.506;9.050;2023-06-14T01:38:30;13.80;61.90
13488;DHT22;6816;48.506;9.050;2023-06-14T01:41:33;13.60;61.10
13488;DHT22;6816;48.506;9.050;2023-06-14T01:44:35;13.60;61.40
13488;DHT22;6816;48.506;9.050;2023-06-14T01:47:36;13.60;61.50
13488;DHT22;6816;48.506;9.050;2023-06-14T01:50:36;13.40;61.70
13488;DHT22;6816;48.506;9.050;2023-06-14T01:53:37;13.40;62.10
13488;DHT22;6816;48.506;9.050;2023-06-14T01:56:37;13.30;62.30
13488;DHT22;6816;48.506;9.050;2023-06-14T01:59:38;13.30;62.60
13488;DHT22;6816;48.506;9.050;2023-06-14T02:02:39;13.30;62.90
13488;DHT22;6816;48.506;9.050;2023-06-14T02:05:40;13.40;63.20
13488;DHT22;6816;48.506;9.050;2023-06-14T02:08:41;13.20;63.20
13488;DHT22;6816;48.506;9.050;2023-06-14T02:11:41;13.10;63.20
13488;DHT22;6816;48.506;9.050;2023-06-14T02:14:42;13.20;63.40
13488;DHT22;6816;48.506;9.050;2023-06-14T02:17:46;13.00;63.50
13488;DHT22;6816;48.506;9.050;2023-06-14T02:20:47;13.00;63.80
13488;DHT22;6816;48.506;9.050;2023-06-14T02:23:48;13.00;63.80
13488;DHT22;6816;48.506;9.050;2023-06-14T02:26:48;12.90;63.90
13488;DHT22;6816;48.506;9.050;2023-06-14T02:29:49;12.80;64.10
13488;DHT22;6816;48.506;9.050;2023-06-14T02:32:50;13.00;64.30
13488;DHT22;6816;48.506;9.050;2023-06-14T02:35:51;12.70;64.10
13488;DHT22;6816;48.506;9.050;2023-06-14T02:38:53;12.80;64.30
13488;DHT22;6816;48.506;9.050;2023-06-14T02:41:54;12.70;64.30
13488;DHT22;6816;48.506;9.050;2023-06-14T02:44:55;12.60;64.40
13488;DHT22;6816;48.506;9.050;2023-06-14T02:47:55;12.50;64.60
13488;DHT22;6816;48.506;9.050;2023-06-14T02:50:56;12.50;64.80
13488;DHT22;6816;48.506;9.050;2023-06-14T02:53:57;12.60;65.20
13488;DHT22;6816;48.506;9.050;2023-06-14T02:56:57;12.30;65.20
13488;DHT22;6816;48.506;9.050;2023-06-14T02:59:58;12.40;65.40
13488;DHT22;6816;48.506;9.050;2023-06-14T03:02:58;12.30;65.50
13488;DHT22;6816;48.506;9.050;2023-06-14T03:06:02;12.30;65.80
13488;DHT22;6816;48.506;9.050;2023-06-14T03:09:04;12.20;66.10
13488;DHT22;6816;48.506;9.050;2023-06-14T03:12:06;12.20;66.40
13488;DHT22;6816;48.506;9.050;2023-06-14T03:15:10;12.20;66.90
13488;DHT22;6816;48.506;9.050;2023-06-14T03:18:11;12.20;67.00
13488;DHT22;6816;48.506;9.050;2023-06-14T03:21:15;12.10;67.10
13488;DHT22;6816;48.506;9.050;2023-06-14T03:24:16;12.10;67.30
13488;DHT22;6816;48.506;9.050;2023-06-14T03:27:18;12.10;67.60
13488;DHT22;6816;48.506;9.050;2023-06-14T03:30:19;12.10;67.80
13488;DHT22;6816;48.506;9.050;2023-06-14T03:33:19;12.10;67.90
13488;DHT22;6816;48.506;9.050;2023-06-14T03:36:21;12.20;68.00
13488;DHT22;6816;48.506;9.050;2023-06-14T03:39:22;12.10;68.00
13488;DHT22;6816;48.506;9.050;2023-06-14T03:42:22;12.00;67.90
13488;DHT22;6816;48.506;9.050;2023-06-14T03:45:23;12.00;67.70
13488;DHT22;6816;48.506;9.050;2023-06-14T03:48:24;12.00;67.60
13488;DHT22;6816;48.506;9.050;2023-06-14T03:51:24;12.00;67.60
13488;DHT22;6816;48.506;9.050;2023-06-14T03:54:25;12.00;67.60
13488;DHT22;6816;48.506;9.050;2023-06-14T03:57:27;11.90;67.60
13488;DHT22;6816;48.506;9.050;2023-06-14T04:00:27;11.90;67.90
13488;DHT22;6816;48.506;9.050;2023-06-14T04:03:28;11.90;68.10
13488;DHT22;6816;48.506;9.050;2023-06-14T04:06:29;11.90;68.40
13488;DHT22;6816;48.506;9.050;2023-06-14T04:09:33;11.90;68.70
13488;DHT22;6816;48.506;9.050;2023-06-14T04:12:33;11.80;68.90
13488;DHT22;6816;48.506;9.050;2023-06-14T04:15:34;11.80;69.80
13488;DHT22;6816;48.506;9.050;2023-06-14T04:18:36;11.80;69.00
13488;DHT22;6816;48.506;9.050;2023-06-14T04:21:36;11.80;69.00
13488;DHT22;6816;48.506;9.050;2023-06-14T04:24:37;11.80;69.10
13488;DHT22;6816;48.506;9.050;2023-06-14T04:27:37;11.90;69.30
13488;DHT22;6816;48.506;9.050;2023-06-14T04:30:38;11.80;69.40
13488;DHT22;6816;48.506;9.050;2023-06-14T04:33:40;11.90;69.50
13488;DHT22;6816;48.506;9.050;2023-06-14T04:36:44;11.90;69.80
13488;DHT22;6816;48.506;9.050;2023-06-14T04:39:54;11.90;70.00
13488;DHT22;6816;48.506;9.050;2023-06-14T04:42:56;12.00;70.10
13488;DHT22;6816;48.506;9.050;2023-06-14T04:45:57;12.00;71.10
13488;DHT22;6816;48.506;9.050;2023-06-14T04:48:58;12.10;70.50
13488;DHT22;6816;48.506;9.050;2023-06-14T04:52:03;12.10;70.60
13488;DHT22;6816;48.506;9.050;2023-06-14T04:55:04;12.20;70.80
13488;DHT22;6816;48.506;9.050;2023-06-14T04:58:04;12.30;71.00
13488;DHT22;6816;48.506;9.050;2023-06-14T05:01:05;12.40;71.20
13488;DHT22;6816;48.506;9.050;2023-06-14T05:04:06;12.40;71.20
13488;DHT22;6816;48.506;9.050;2023-06-14T05:07:09;12.50;71.30
13488;DHT22;6816;48.506;9.050;2023-06-14T05:10:10;12.70;71.70
13488;DHT22;6816;48.506;9.050;2023-06-14T05:13:11;12.80;71.50
13488;DHT22;6816;48.506;9.050;2023-06-14T05:16:12;12.90;71.30
13488;DHT22;6816;48.506;9.050;2023-06-14T05:19:13;13.10;71.30
13488;DHT22;6816;48.506;9.050;2023-06-14T05:22:14;13.30;71.50
13488;DHT22;6816;48.506;9.050;2023-06-14T05:25:15;13.50;71.50
13488;DHT22;6816;48.506;9.050;2023-06-14T05:28:15;13.70;71.40
13488;DHT22;6816;48.506;9.050;2023-06-14T05:31:16;14.00;71.30
13488;DHT22;6816;48.506;9.050;2023-06-14T05:34:17;14.20;70.80
13488;DHT22;6816;48.506;9.050;2023-06-14T05:37:18;14.40;70.50
13488;DHT22;6816;48.506;9.050;2023-06-14T05:40:18;14.60;70.20
13488;DHT22;6816;48.506;9.050;2023-06-14T05:43:19;14.80;69.90
13488;DHT22;6816;48.506;9.050;2023-06-14T05:46:20;15.10;69.60
13488;DHT22;6816;48.506;9.050;2023-06-14T05:49:22;15.20;69.00
13488;DHT22;6816;48.506;9.050;2023-06-14T05:52:23;15.50;68.70
13488;DHT22;6816;48.506;9.050;2023-06-14T05:55:24;15.60;68.40
13488;DHT22;6816;48.506;9.050;2023-06-14T05:58:25;15.80;69.10
13488;DHT22;6816;48.506;9.050;2023-06-14T06:01:26;16.00;68.10
13488;DHT22;6816;48.506;9.050;2023-06-14T06:04:26;16.20;67.30
13488;DHT22;6816;48.506;9.050;2023-06-14T06:07:27;16.40;67.10
13488;DHT22;6816;48.506;9.050;2023-06-14T06:10:28;16.60;67.10
13488;DHT22;6816;48.506;9.050;2023-06-14T06:13:28;16.70;67.00
13488;DHT22;6816;48.506;9.050;2023-06-14T06:16:29;16.90;66.50
13488;DHT22;6816;48.506;9.050;2023-06-14T06:19:29;17.10;66.10
13488;DHT22;6816;48.506;9.050;2023-06-14T06:22:30;17.30;65.50
13488;DHT22;6816;48.506;9.050;2023-06-14T06:25:31;17.40;65.10
13488;DHT22;6816;48.506;9.050;2023-06-14T06:28:32;17.60;64.90
13488;DHT22;6816;48.506;9.050;2023-06-14T06:31:32;17.80;64.20
13488;DHT22;6816;48.506;9.050;2023-06-14T06:34:33;17.90;63.90
13488;DHT22;6816;48.506;9.050;2023-06-14T06:37:33;18.00;63.80
13488;DHT22;6816;48.506;9.050;2023-06-14T06:40:34;18.20;63.50
13488;DHT22;6816;48.506;9.050;2023-06-14T06:43:35;18.30;63.30
13488;DHT22;6816;48.506;9.050;2023-06-14T06:46:36;18.50;63.10
13488;DHT22;6816;48.506;9.050;2023-06-14T06:49:40;18.60;62.90
13488;DHT22;6816;48.506;9.050;2023-06-14T06:52:40;18.80;62.50
13488;DHT22;6816;48.506;9.050;2023-06-14T06:55:41;18.90;63.40
13488;DHT22;6816;48.506;9.050;2023-06-14T06:58:42;19.10;62.10
13488;DHT22;6816;48.506;9.050;2023-06-14T07:01:42;19.30;61.60
13488;DHT22;6816;48.506;9.050;2023-06-14T07:04:43;19.40;60.50
13488;DHT22;6816;48.506;9.050;2023-06-14T07:07:43;19.50;60.40
13488;DHT22;6816;48.506;9.050;2023-06-14T07:10:44;19.70;59.90
13488;DHT22;6816;48.506;9.050;2023-06-14T07:13:45;19.90;59.80
13488;DHT22;6816;48.506;9.050;2023-06-14T07:16:46;20.00;59.30
13488;DHT22;6816;48.506;9.050;2023-06-14T07:19:47;20.20;58.90
13488;DHT22;6816;48.506;9.050;2023-06-14T07:22:47;20.40;58.50
13488;DHT22;6816;48.506;9.050;2023-06-14T07:25:48;20.40;58.20
13488;DHT22;6816;48.506;9.050;2023-06-14T07:28:49;20.60;57.60
13488;DHT22;6816;48.506;9.050;2023-06-14T07:31:50;20.80;57.80
13488;DHT22;6816;48.506;9.050;2023-06-14T07:34:50;20.90;57.50
13488;DHT22;6816;48.506;9.050;2023-06-14T07:37:51;21.10;57.50
13488;DHT22;6816;48.506;9.050;2023-06-14T07:40:51;21.30;57.00
13488;DHT22;6816;48.506;9.050;2023-06-14T07:43:52;21.50;56.50
13488;DHT22;6816;48.506;9.050;2023-06-14T07:46:53;21.70;56.40
13488;DHT22;6816;48.506;9.050;2023-06-14T07:49:53;21.80;55.90
13488;DHT22;6816;48.506;9.050;2023-06-14T07:52:54;21.90;55.70
13488;DHT22;6816;48.506;9.050;2023-06-14T07:55:55;22.10;55.60
13488;DHT22;6816;48.506;9.050;2023-06-14T07:58:55;22.30;55.20
13488;DHT22;6816;48.506;9.050;2023-06-14T08:01:56;22.40;55.10
13488;DHT22;6816;48.506;9.050;2023-06-14T08:04:56;22.60;55.00
13488;DHT22;6816;48.506;9.050;2023-06-14T08:07:57;22.70;55.20
13488;DHT22;6816;48.506;9.050;2023-06-14T08:10:58;22.90;54.90
13488;DHT22;6816;48.506;9.050;2023-06-14T08:13:58;23.00;54.40
13488;DHT22;6816;48.506;9.050;2023-06-14T08:16:59;23.20;54.70
13488;DHT22;6816;48.506;9.050;2023-06-14T08:20:00;23.30;53.90
13488;DHT22;6816;48.506;9.050;2023-06-14T08:23:02;23.40;53.50
13488;DHT22;6816;48.506;9.050;2023-06-14T08:26:04;23.60;53.20
13488;DHT22;6816;48.506;9.050;2023-06-14T08:29:05;23.70;52.70
13488;DHT22;6816;48.506;9.050;2023-06-14T08:32:07;23.80;52.50
13488;DHT22;6816;48.506;9.050;2023-06-14T08:35:08;23.90;52.20
13488;DHT22;6816;48.506;9.050;2023-06-14T08:38:10;24.00;51.60
13488;DHT22;6816;48.506;9.050;2023-06-14T08:41:12;24.20;50.50
13488;DHT22;6816;48.506;9.050;2023-06-14T08:44:16;24.30;49.80
13488;DHT22;6816;48.506;9.050;2023-06-14T08:47:17;24.40;49.10
13488;DHT22;6816;48.506;9.050;2023-06-14T08:50:21;24.50;48.80
13488;DHT22;6816;48.506;9.050;2023-06-14T08:53:22;24.60;49.00
13488;DHT22;6816;48.506;9.050;2023-06-14T08:56:26;24.70;48.60
13488;DHT22;6816;48.506;9.050;2023-06-14T08:59:28;24.80;48.20
13488;DHT22;6816;48.506;9.050;2023-06-14T09:02:29;25.00;48.20
13488;DHT22;6816;48.506;9.050;2023-06-14T09:05:29;25.10;47.80
13488;DHT22;6816;48.506;9.050;2023-06-14T09:08:30;25.20;47.70
13488;DHT22;6816;48.506;9.050;2023-06-14T09:11:31;25.30;47.30
13488;DHT22;6816;48.506;9.050;2023-06-14T09:14:33;25.40;47.30
13488;DHT22;6816;48.506;9.050;2023-06-14T09:17:39;25.50;47.10
13488;DHT22;6816;48.506;9.050;2023-06-14T09:20:40;25.60;46.80
13488;DHT22;6816;48.506;9.050;2023-06-14T09:23:43;25.70;46.60
13488;DHT22;6816;48.506;9.050;2023-06-14T09:26:47;25.80;46.70
13488;DHT22;6816;48.506;9.050;2023-06-14T09:29:47;25.90;46.20
13488;DHT22;6816;48.506;9.050;2023-06-14T09:32:48;25.90;46.00
13488;DHT22;6816;48.506;9.050;2023-06-14T09:35:52;26.00;46.20
13488;DHT22;6816;48.506;9.050;2023-06-14T09:38:55;26.10;45.60
13488;DHT22;6816;48.506;9.050;2023-06-14T09:41:56;26.20;45.90
13488;DHT22;6816;48.506;9.050;2023-06-14T09:44:57;26.30;45.80
13488;DHT22;6816;48.506;9.050;2023-06-14T09:47:58;26.30;45.60
13488;DHT22;6816;48.506;9.050;2023-06-14T09:50:59;26.40;45.90
13488;DHT22;6816;48.506;9.050;2023-06-14T09:54:02;26.50;44.90
13488;DHT22;6816;48.506;9.050;2023-06-14T09:57:05;26.50;44.20
13488;DHT22;6816;48.506;9.050;2023-06-14T10:00:07;26.60;44.10
13488;DHT22;6816;48.506;9.050;2023-06-14T10:03:27;26.60;43.90
13488;DHT22;6816;48.506;9.050;2023-06-14T10:06:29;26.60;43.20
13488;DHT22;6816;48.506;9.050;2023-06-14T10:09:30;26.70;44.10
13488;DHT22;6816;48.506;9.050;2023-06-14T10:12:31;26.70;43.80
13488;DHT22;6816;48.506;9.050;2023-06-14T10:16:12;26.80;43.40
13488;DHT22;6816;48.506;9.050;2023-06-14T10:19:48;26.90;42.40
13488;DHT22;6816;48.506;9.050;2023-06-14T10:23:03;26.90;42.10
13488;DHT22;6816;48.506;9.050;2023-06-14T10:26:06;27.00;43.10
13488;DHT22;6816;48.506;9.050;2023-06-14T10:29:08;27.00;42.90
13488;DHT22;6816;48.506;9.050;2023-06-14T10:32:09;27.00;42.30
13488;DHT22;6816;48.506;9.050;2023-06-14T10:35:16;26.90;42.30
13488;DHT22;6816;48.506;9.050;2023-06-14T10:38:30;27.00;41.60
13488;DHT22;6816;48.506;9.050;2023-06-14T10:41:36;27.00;41.30
13488;DHT22;6816;48.506;9.050;2023-06-14T10:44:56;27.00;41.50
13488;DHT22;6816;48.506;9.050;2023-06-14T10:47:58;27.00;41.00
13488;DHT22;6816;48.506;9.050;2023-06-14T10:51:02;27.00;41.40
13488;DHT22;6816;48.506;9.050;2023-06-14T10:54:02;27.00;40.80
13488;DHT22;6816;48.506;9.050;2023-06-14T10:57:06;27.00;41.00
13488;DHT22;6816;48.506;9.050;2023-06-14T11:00:09;27.00;40.20
13488;DHT22;6816;48.506;9.050;2023-06-14T11:03:52;27.00;40.40
13488;DHT22;6816;48.506;9.050;2023-06-14T11:07:10;26.90;39.60
13488;DHT22;6816;48.506;9.050;2023-06-14T11:13:19;26.80;40.90
13488;DHT22;6816;48.506;9.050;2023-06-14T11:16:20;26.80;40.80
13488;DHT22;6816;48.506;9.050;2023-06-14T11:19:26;26.90;40.80
13488;DHT22;6816;48.506;9.050;2023-06-14T11:22:29;27.00;40.40
13488;DHT22;6816;48.506;9.050;2023-06-14T11:25:29;27.10;40.00
13488;DHT22;6816;48.506;9.050;2023-06-14T11:28:40;27.10;39.70
13488;DHT22;6816;48.506;9.050;2023-06-14T11:31:44;27.20;39.30
13488;DHT22;6816;48.506;9.050;2023-06-14T11:34:48;27.30;39.30
13488;DHT22;6816;48.506;9.050;2023-06-14T11:37:53;27.30;39.60
13488;DHT22;6816;48.506;9.050;2023-06-14T11:40:58;27.40;39.30
13488;DHT22;6816;48.506;9.050;2023-06-14T11:44:00;27.40;39.20
13488;DHT22;6816;48.506;9.050;2023-06-14T11:47:03;27.40;39.50
13488;DHT22;6816;48.506;9.050;2023-06-14T11:50:06;27.50;39.20
13488;DHT22;6816;48.506;9.050;2023-06-14T11:53:07;27.50;39.40
13488;DHT22;6816;48.506;9.050;2023-06-14T11:56:08;27.60;39.10
13488;DHT22;6816;48.506;9.050;2023-06-14T11:59:08;27.60;39.10
13488;DHT22;6816;48.506;9.050;2023-06-14T12:02:09;27.70;38.90
13488;DHT22;6816;48.506;9.050;2023-06-14T12:05:10;27.70;38.80
13488;DHT22;6816;48.506;9.050;2023-06-14T12:08:11;27.80;38.70
13488;DHT22;6816;48.506;9.050;2023-06-14T12:11:17;27.80;38.40
13488;DHT22;6816;48.506;9.050;2023-06-14T12:14:18;27.80;38.40
13488;DHT22;6816;48.506;9.050;2023-06-14T12:17:19;27.80;39.10
13488;DHT22;6816;48.506;9.050;2023-06-14T12:20:19;27.80;38.10
13488;DHT22;6816;48.506;9.050;2023-06-14T12:23:23;27.80;37.90
13488;DHT22;6816;48.506;9.050;2023-06-14T12:26:24;27.90;38.00
13488;DHT22;6816;48.506;9.050;2023-06-14T12:29:26;27.90;37.70
13488;DHT22;6816;48.506;9.050;2023-06-14T12:32:27;28.00;37.80
13488;DHT22;6816;48.506;9.050;2023-06-14T12:35:28;28.00;37.70
13488;DHT22;6816;48.506;9.050;2023-06-14T12:38:28;28.10;37.80
13488;DHT22;6816;48.506;9.050;2023-06-14T12:41:29;28.20;37.70
13488;DHT22;6816;48.506;9.050;2023-06-14T12:44:29;28.20;37.60
13488;DHT22;6816;48.506;9.050;2023-06-14T12:47:31;28.30;37.70
13488;DHT22;6816;48.506;9.050;2023-06-14T12:50:32;28.30;37.20
13488;DHT22;6816;48.506;9.050;2023-06-14T12:53:33;28.40;37.30
13488;DHT22;6816;48.506;9.050;2023-06-14T12:56:33;28.40;37.30
13488;DHT22;6816;48.506;9.050;2023-06-14T12:59:34;28.40;37.30
13488;DHT22;6816;48.506;9.050;2023-06-14T13:02:34;28.50;37.10
13488;DHT22;6816;48.506;9.050;2023-06-14T13:05:35;28.50;37.30
13488;DHT22;6816;48.506;9.050;2023-06-14T13:08:37;28.40;37.10
13488;DHT22;6816;48.506;9.050;2023-06-14T13:11:38;28.40;37.40
13488;DHT22;6816;48.506;9.050;2023-06-14T13:14:40;28.40;37.20
13488;DHT22;6816;48.506;9.050;2023-06-14T13:17:43;28.40;37.10
13488;DHT22;6816;48.506;9.050;2023-06-14T13:20:48;28.40;37.00
13488;DHT22;6816;48.506;9.050;2023-06-14T13:23:49;28.40;37.10
13488;DHT22;6816;48.506;9.050;2023-06-14T13:26:50;28.40;37.00
13488;DHT22;6816;48.506;9.050;2023-06-14T13:29:50;28.40;37.20
13488;DHT22;6816;48.506;9.050;2023-06-14T13:32:51;28.40;37.40
13488;DHT22;6816;48.506;9.050;2023-06-14T13:35:52;28.50;37.40
13488;DHT22;6816;48.506;9.050;2023-06-14T13:38:53;28.50;37.30
13488;DHT22;6816;48.506;9.050;2023-06-14T13:41:55;28.50;37.30
13488;DHT22;6816;48.506;9.050;2023-06-14T13:44:55;28.50;37.10
13488;DHT22;6816;48.506;9.050;2023-06-14T13:47:56;28.50;37.00
13488;DHT22;6816;48.506;9.050;2023-06-14T13:50:57;28.40;37.10
13488;DHT22;6816;48.506;9.050;2023-06-14T13:53:58;28.50;37.30
13488;DHT22;6816;48.506;9.050;2023-06-14T13:56:58;28.50;37.30
13488;DHT22;6816;48.506;9.050;2023-06-14T13:59:59;28.60;37.30
13488;DHT22;6816;48.506;9.050;2023-06-14T14:03:03;28.60;37.30
13488;DHT22;6816;48.506;9.050;2023-06-14T14:06:04;28.80;37.20
13488;DHT22;6816;48.506;9.050;2023-06-14T14:09:06;28.80;37.10
13488;DHT22;6816;48.506;9.050;2023-06-14T14:12:08;28.90;36.90
13488;DHT22;6816;48.506;9.050;2023-06-14T14:15:08;29.00;36.90
13488;DHT22;6816;48.506;9.050;2023-06-14T14:18:13;29.00;36.50
13488;DHT22;6816;48.506;9.050;2023-06-14T14:21:13;29.00;36.40
13488;DHT22;6816;48.506;9.050;2023-06-14T14:24:14;29.00;36.30
13488;DHT22;6816;48.506;9.050;2023-06-14T14:27:15;28.90;36.20
13488;DHT22;6816;48.506;9.050;2023-06-14T14:30:15;28.90;36.50
13488;DHT22;6816;48.506;9.050;2023-06-14T14:33:17;28.90;36.70
13488;DHT22;6816;48.506;9.050;2023-06-14T14:36:18;28.90;36.50
13488;DHT22;6816;48.506;9.050;2023-06-14T14:39:18;28.90;37.30
13488;DHT22;6816;48.506;9.050;2023-06-14T14:42:19;28.90;36.70
13488;DHT22;6816;48.506;9.050;2023-06-14T14:45:20;28.80;36.90
13488;DHT22;6816;48.506;9.050;2023-06-14T14:48:20;28.90;36.90
13488;DHT22;6816;48.506;9.050;2023-06-14T14:51:21;28.90;36.80
13488;DHT22;6816;48.506;9.050;2023-06-14T14:54:22;29.00;36.90
13488;DHT22;6816;48.506;9.050;2023-06-14T14:57:23;29.00;36.80
13488;DHT22;6816;48.506;9.050;2023-06-14T15:00:24;29.10;36.50
13488;DHT22;6816;48.506;9.050;2023-06-14T15:03:24;29.10;36.40
13488;DHT22;6816;48.506;9.050;2023-06-14T15:06:25;29.20;36.30
13488;DHT22;6816;48.506;9.050;2023-06-14T15:09:26;29.30;36.40
13488;DHT22;6816;48.506;9.050;2023-06-14T15:12:26;29.40;36.30
13488;DHT22;6816;48.506;9.050;2023-06-14T15:15:27;29.60;36.10
13488;DHT22;6816;48.506;9.050;2023-06-14T15:18:28;29.80;36.30
13488;DHT22;6816;48.506;9.050;2023-06-14T15:21:28;30.10;36.50
13488;DHT22;6816;48.506;9.050;2023-06-14T15:24:29;30.40;35.90
13488;DHT22;6816;48.506;9.050;2023-06-14T15:27:31;30.60;35.40
13488;DHT22;6816;48.506;9.050;2023-06-14T15:30:32;30.90;35.30
13488;DHT22;6816;48.506;9.050;2023-06-14T15:33:33;31.20;35.00
13488;DHT22;6816;48.506;9.050;2023-06-14T15:36:33;31.40;34.80
13488;DHT22;6816;48.506;9.050;2023-06-14T15:39:34;31.60;34.50
13488;DHT22;6816;48.506;9.050;2023-06-14T15:42:35;31.90;34.30
13488;DHT22;6816;48.506;9.050;2023-06-14T15:45:36;32.00;34.30
13488;DHT22;6816;48.506;9.050;2023-06-14T15:48:37;32.10;33.90
13488;DHT22;6816;48.506;9.050;2023-06-14T15:51:38;32.30;33.60
13488;DHT22;6816;48.506;9.050;2023-06-14T15:54:38;32.40;33.90
13488;DHT22;6816;48.506;9.050;2023-06-14T15:57:39;32.40;33.60
13488;DHT22;6816;48.506;9.050;2023-06-14T16:00:40;32.50;33.70
13488;DHT22;6816;48.506;9.050;2023-06-14T16:03:40;32.60;33.50
13488;DHT22;6816;48.506;9.050;2023-06-14T16:06:41;32.60;33.10
13488;DHT22;6816;48.506;9.050;2023-06-14T16:09:42;32.70;33.10
13488;DHT22;6816;48.506;9.050;2023-06-14T16:12:42;32.70;32.90
13488;DHT22;6816;48.506;9.050;2023-06-14T16:15:43;32.80;32.30
13488;DHT22;6816;48.506;9.050;2023-06-14T16:18:43;32.90;32.20
13488;DHT22;6816;48.506;9.050;2023-06-14T16:21:44;32.90;32.00
13488;DHT22;6816;48.506;9.050;2023-06-14T16:24:44;32.90;32.00
13488;DHT22;6816;48.506;9.050;2023-06-14T16:27:45;32.80;32.40
13488;DHT22;6816;48.506;9.050;2023-06-14T16:30:46;32.80;32.30
13488;DHT22;6816;48.506;9.050;2023-06-14T16:33:47;32.80;32.50
13488;DHT22;6816;48.506;9.050;2023-06-14T16:36:48;32.70;32.30
13488;DHT22;6816;48.506;9.050;2023-06-14T16:39:49;32.70;32.10
13488;DHT22;6816;48.506;9.050;2023-06-14T16:42:50;32.50;32.20
13488;DHT22;6816;48.506;9.050;2023-06-14T16:45:51;32.20;32.10
13488;DHT22;6816;48.506;9.050;2023-06-14T16:48:51;31.90;32.00
13488;DHT22;6816;48.506;9.050;2023-06-14T16:51:53;31.60;32.30
13488;DHT22;6816;48.506;9.050;2023-06-14T16:54:54;31.20;32.50
13488;DHT22;6816;48.506;9.050;2023-06-14T16:57:54;30.80;32.40
13488;DHT22;6816;48.506;9.050;2023-06-14T17:00:55;30.50;32.90
13488;DHT22;6816;48.506;9.050;2023-06-14T17:03:56;30.20;33.00
13488;DHT22;6816;48.506;9.050;2023-06-14T17:06:57;29.90;33.20
13488;DHT22;6816;48.506;9.050;2023-06-14T17:09:58;29.70;33.30
13488;DHT22;6816;48.506;9.050;2023-06-14T17:12:58;29.50;33.70
13488;DHT22;6816;48.506;9.050;2023-06-14T17:16:00;29.30;34.10
13488;DHT22;6816;48.506;9.050;2023-06-14T17:19:01;29.00;34.30
13488;DHT22;6816;48.506;9.050;2023-06-14T17:22:04;28.90;34.60
13488;DHT22;6816;48.506;9.050;2023-06-14T17:25:06;28.70;34.80
13488;DHT22;6816;48.506;9.050;2023-06-14T17:28:06;28.50;35.00
13488;DHT22;6816;48.506;9.050;2023-06-14T17:31:07;28.30;35.20
13488;DHT22;6816;48.506;9.050;2023-06-14T17:34:08;28.20;35.30
13488;DHT22;6816;48.506;9.050;2023-06-14T17:37:09;28.00;35.60
13488;DHT22;6816;48.506;9.050;2023-06-14T17:40:09;27.90;35.80
13488;DHT22;6816;48.506;9.050;2023-06-14T17:43:10;27.80;36.00
13488;DHT22;6816;48.506;9.050;2023-06-14T17:46:11;27.70;36.20
13488;DHT22;6816;48.506;9.050;2023-06-14T17:49:11;27.60;36.40
13488;DHT22;6816;48.506;9.050;2023-06-14T17:52:12;27.50;36.60
13488;DHT22;6816;48.506;9.050;2023-06-14T17:55:13;27.40;36.90
13488;DHT22;6816;48.506;9.050;2023-06-14T17:58:14;27.30;36.90
13488;DHT22;6816;48.506;9.050;2023-06-14T18:01:14;27.30;37.20
13488;DHT22;6816;48.506;9.050;2023-06-14T18:04:17;27.20;37.30
13488;DHT22;6816;48.506;9.050;2023-06-14T18:07:17;27.20;37.60
13488;DHT22;6816;48.506;9.050;2023-06-14T18:10:18;27.10;37.60
13488;DHT22;6816;48.506;9.050;2023-06-14T18:13:19;27.10;37.60
13488;DHT22;6816;48.506;9.050;2023-06-14T18:16:20;27.10;37.80
13488;DHT22;6816;48.506;9.050;2023-06-14T18:19:21;27.10;37.70
13488;DHT22;6816;48.506;9.050;2023-06-14T18:22:21;27.00;37.90
13488;DHT22;6816;48.506;9.050;2023-06-14T18:25:22;27.00;37.90
13488;DHT22;6816;48.506;9.050;2023-06-14T18:28:25;26.90;38.30
13488;DHT22;6816;48.506;9.050;2023-06-14T18:31:26;26.90;38.50
13488;DHT22;6816;48.506;9.050;2023-06-14T18:34:26;26.80;38.50
13488;DHT22;6816;48.506;9.050;2023-06-14T18:37:27;26.80;38.50
13488;DHT22;6816;48.506;9.050;2023-06-14T18:40:28;26.70;38.70
13488;DHT22;6816;48.506;9.050;2023-06-14T18:43:28;26.70;38.90
13488;DHT22;6816;48.506;9.050;2023-06-14T18:46:32;26.60;38.90
13488;DHT22;6816;48.506;9.050;2023-06-14T18:49:32;26.50;39.00
13488;DHT22;6816;48.506;9.050;2023-06-14T18:52:33;26.40;39.10
13488;DHT22;6816;48.506;9.050;2023-06-14T18:55:33;26.30;39.10
13488;DHT22;6816;48.506;9.050;2023-06-14T18:58:34;26.20;39.30
13488;DHT22;6816;48.506;9.050;2023-06-14T19:01:35;26.10;39.50
13488;DHT22;6816;48.506;9.050;2023-06-14T19:04:35;26.00;39.70
13488;DHT22;6816;48.506;9.050;2023-06-14T19:07:36;25.90;39.70
13488;DHT22;6816;48.506;9.050;2023-06-14T19:10:36;25.80;40.00
13488;DHT22;6816;48.506;9.050;2023-06-14T19:13:37;25.70;40.10
13488;DHT22;6816;48.506;9.050;2023-06-14T19:16:38;25.60;40.20
13488;DHT22;6816;48.506;9.050;2023-06-14T19:19:38;25.40;40.40
13488;DHT22;6816;48.506;9.050;2023-06-14T19:22:39;25.30;40.60
13488;DHT22;6816;48.506;9.050;2023-06-14T19:25:40;25.20;40.80
13488;DHT22;6816;48.506;9.050;2023-06-14T19:28:40;25.10;40.90
13488;DHT22;6816;48.506;9.050;2023-06-14T19:31:41;24.90;41.00